Time,TemperatureF,DewpointF,PressureIn,WindDirection,WindDirectionDegrees,WindSpeedMPH,WindSpeedGustMPH,Humidity,HourlyPrecipIn,Conditions,Clouds,dailyrainin,SoftwareType,DateUTC
2013-04-17 00:01:00,54.0,52.0,30.00,WSW,254,4.0,7.0,93,0.00,,,0.00,Wunderground v.1.15,2013-04-17 04:01:00,
2013-04-17 00:06:00,54.0,52.0,29.99,WSW,245,3.0,7.0,93,0.00,,,0.00,Wunderground v.1.15,2013-04-17 04:06:00,
2013-04-17 00:10:00,54.0,52.0,30.00,WSW,237,3.0,4.0,93,0.00,,,0.00,Wunderground v.1.15,2013-04-17 04:10:00,
2013-04-17 00:15:00,54.0,52.0,30.00,West,265,2.0,4.0,93,0.00,,,0.00,Wunderground v.1.15,2013-04-17 04:15:00,
2013-04-17 00:25:00,53.8,51.8,30.00,WSW,252,1.0,2.0,93,0.00,,,0.00,Wunderground v.1.15,2013-04-17 04:25:00,
2013-04-17 00:30:00,53.7,51.7,30.00,WSW,252,0.0,0.0,93,0.00,,,0.00,Wunderground v.1.15,2013-04-17 04:30:00,
2013-04-17 00:35:00,53.6,51.9,30.00,WSW,252,0.0,0.0,94,0.00,,,0.00,Wunderground v.1.15,2013-04-17 04:35:00,
2013-04-17 00:40:00,53.5,51.8,30.00,WSW,252,0.0,0.0,94,0.00,,,0.00,Wunderground v.1.15,2013-04-17 04:40:00,
2013-04-17 00:45:00,53.4,51.7,30.01,WSW,252,0.0,0.0,94,0.00,,,0.00,Wunderground v.1.15,2013-04-17 04:45:00,
2013-04-17 00:55:00,53.2,51.5,30.02,WSW,257,0.0,4.0,94,0.00,,,0.00,Wunderground v.1.15,2013-04-17 04:55:00,
2013-04-17 01:00:00,53.3,51.6,30.02,WSW,238,1.0,2.0,94,0.00,,,0.00,Wunderground v.1.15,2013-04-17 05:00:00,
2013-04-17 01:05:00,53.6,51.9,30.02,West,271,2.0,2.0,94,0.00,,,0.00,Wunderground v.1.15,2013-04-17 05:05:00,
2013-04-17 01:15:00,53.4,51.4,30.02,West,260,1.0,2.0,93,0.00,,,0.00,Wunderground v.1.15,2013-04-17 05:15:00,
2013-04-17 01:21:00,53.2,51.2,30.02,WSW,257,0.0,0.0,93,0.00,,,0.00,Wunderground v.1.15,2013-04-17 05:21:00,
2013-04-17 01:26:00,53.1,51.1,30.02,WSW,257,0.0,0.0,93,0.00,,,0.00,Wunderground v.1.15,2013-04-17 05:26:00,
2013-04-17 01:35:00,53.1,50.5,30.03,WSW,254,0.0,0.0,91,0.00,,,0.00,Wunderground v.1.15,2013-04-17 05:35:00,
2013-04-17 01:45:00,53.2,50.0,30.03,WSW,240,1.0,6.0,89,0.00,,,0.00,Wunderground v.1.15,2013-04-17 05:45:00,
2013-04-17 01:50:00,53.3,49.8,30.03,WSW,250,1.0,1.0,88,0.00,,,0.00,Wunderground v.1.15,2013-04-17 05:50:00,
2013-04-17 01:55:00,53.1,49.3,30.03,WSW,246,0.0,1.0,87,0.00,,,0.00,Wunderground v.1.15,2013-04-17 05:55:00,
2013-04-17 02:05:00,52.6,47.3,30.04,SW,222,1.0,6.0,82,0.00,,,0.00,Wunderground v.1.15,2013-04-17 06:05:00,
2013-04-17 02:11:00,52.4,46.4,30.04,NNW,331,1.0,2.0,80,0.00,,,0.00,Wunderground v.1.15,2013-04-17 06:11:00,
2013-04-17 02:16:00,52.2,46.2,30.05,NNW,346,0.0,2.0,80,0.00,,,0.00,Wunderground v.1.15,2013-04-17 06:16:00,
2013-04-17 02:25:00,51.5,44.5,30.04,NE,40,1.0,1.0,77,0.00,,,0.00,Wunderground v.1.15,2013-04-17 06:25:00,
2013-04-17 02:31:00,51.2,44.2,30.05,WSW,252,2.0,2.0,77,0.00,,,0.00,Wunderground v.1.15,2013-04-17 06:31:00,
2013-04-17 02:40:00,50.5,43.2,30.06,West,271,1.0,1.0,76,0.00,,,0.00,Wunderground v.1.15,2013-04-17 06:40:00,
2013-04-17 02:45:00,50.3,43.4,30.06,WSW,253,1.0,1.0,77,0.00,,,0.00,Wunderground v.1.15,2013-04-17 06:45:00,
2013-04-17 02:55:00,49.7,43.1,30.06,West,260,1.0,1.0,78,0.00,,,0.00,Wunderground v.1.15,2013-04-17 06:55:00,
2013-04-17 03:06:00,49.2,42.0,30.05,West,265,1.0,4.0,76,0.00,,,0.00,Wunderground v.1.15,2013-04-17 07:06:00,
2013-04-17 03:15:00,49.0,40.7,30.06,WSW,254,2.0,2.0,73,0.00,,,0.00,Wunderground v.1.15,2013-04-17 07:15:00,
2013-04-17 03:25:00,48.6,40.3,30.06,WSW,240,2.0,4.0,73,0.00,,,0.00,Wunderground v.1.15,2013-04-17 07:25:00,
2013-04-17 03:31:00,48.4,39.8,30.06,SW,215,2.0,2.0,72,0.00,,,0.00,Wunderground v.1.15,2013-04-17 07:31:00,
2013-04-17 03:36:00,48.2,39.9,30.06,NW,326,1.0,2.0,73,0.00,,,0.00,Wunderground v.1.15,2013-04-17 07:36:00,
2013-04-17 03:45:00,47.7,39.5,30.06,West,281,1.0,10.0,73,0.00,,,0.00,Wunderground v.1.15,2013-04-17 07:45:00,
2013-04-17 03:55:00,47.3,39.4,30.06,West,271,1.0,2.0,74,0.00,,,0.00,Wunderground v.1.15,2013-04-17 07:55:00,
2013-04-17 04:01:00,47.0,39.1,30.06,WNW,290,1.0,5.0,74,0.00,,,0.00,Wunderground v.1.15,2013-04-17 08:01:00,
2013-04-17 04:06:00,46.9,39.4,30.05,North,9,1.0,5.0,75,0.00,,,0.00,Wunderground v.1.15,2013-04-17 08:06:00,
2013-04-17 04:15:00,46.5,39.0,30.07,SW,231,1.0,9.0,75,0.00,,,0.00,Wunderground v.1.15,2013-04-17 08:15:00,
2013-04-17 04:26:00,46.4,38.9,30.08,WNW,290,1.0,1.0,75,0.00,,,0.00,Wunderground v.1.15,2013-04-17 08:26:00,
2013-04-17 04:36:00,45.9,38.8,30.09,WSW,252,0.0,0.0,76,0.00,,,0.00,Wunderground v.1.15,2013-04-17 08:36:00,
2013-04-17 04:45:00,45.5,38.4,30.09,WNW,288,0.0,0.0,76,0.00,,,0.00,Wunderground v.1.15,2013-04-17 08:45:00,
2013-04-17 04:51:00,45.3,37.8,30.09,SW,233,0.0,0.0,75,0.00,,,0.00,Wunderground v.1.15,2013-04-17 08:51:00,
2013-04-17 04:56:00,45.1,37.3,30.09,WNW,294,0.0,0.0,74,0.00,,,0.00,Wunderground v.1.15,2013-04-17 08:56:00,
2013-04-17 05:05:00,44.9,36.8,30.09,WSW,252,1.0,1.0,73,0.00,,,0.00,Wunderground v.1.15,2013-04-17 09:05:00,
2013-04-17 05:15:00,44.6,36.5,30.09,SSE,160,1.0,1.0,73,0.00,,,0.00,Wunderground v.1.15,2013-04-17 09:15:00,
2013-04-17 05:21:00,44.4,35.9,30.09,West,259,1.0,5.0,72,0.00,,,0.00,Wunderground v.1.15,2013-04-17 09:21:00,
2013-04-17 05:26:00,44.3,35.5,30.09,ESE,107,1.0,5.0,71,0.00,,,0.00,Wunderground v.1.15,2013-04-17 09:26:00,
2013-04-17 05:35:00,44.1,35.3,30.09,WSW,243,1.0,1.0,71,0.00,,,0.00,Wunderground v.1.15,2013-04-17 09:35:00,
2013-04-17 05:46:00,43.6,34.8,30.09,West,265,1.0,1.0,71,0.00,,,0.00,Wunderground v.1.15,2013-04-17 09:46:00,
2013-04-17 05:55:00,43.2,34.1,30.09,West,263,1.0,1.0,70,0.00,,,0.00,Wunderground v.1.15,2013-04-17 09:55:00,
2013-04-17 06:05:00,43.2,33.7,30.10,SW,227,1.0,8.0,69,0.00,,,0.00,Wunderground v.1.15,2013-04-17 10:05:00,
2013-04-17 06:11:00,43.0,33.5,30.10,NW,321,1.0,1.0,69,0.00,,,0.00,Wunderground v.1.15,2013-04-17 10:11:00,
2013-04-17 06:16:00,42.9,33.4,30.10,WSW,244,1.0,1.0,69,0.00,,,0.00,Wunderground v.1.15,2013-04-17 10:16:00,
2013-04-17 06:25:00,42.7,33.2,30.11,SW,236,1.0,1.0,69,0.00,,,0.00,Wunderground v.1.15,2013-04-17 10:25:00,
2013-04-17 06:31:00,42.8,33.3,30.11,SW,236,0.0,0.0,69,0.00,,,0.00,Wunderground v.1.15,2013-04-17 10:31:00,
2013-04-17 06:36:00,42.8,33.3,30.11,SSW,206,0.0,0.0,69,0.00,,,0.00,Wunderground v.1.15,2013-04-17 10:36:00,
2013-04-17 06:45:00,43.3,33.4,30.12,NW,311,0.0,0.0,68,0.00,,,0.00,Wunderground v.1.15,2013-04-17 10:45:00,
2013-04-17 06:55:00,43.6,33.4,30.13,WNW,291,0.0,0.0,67,0.00,,,0.00,Wunderground v.1.15,2013-04-17 10:55:00,
2013-04-17 07:00:00,43.9,33.6,30.13,West,265,0.0,0.0,67,0.00,,,0.00,Wunderground v.1.15,2013-04-17 11:00:00,
2013-04-17 07:05:00,44.2,33.6,30.13,NE,35,0.0,0.0,66,0.00,,,0.00,Wunderground v.1.15,2013-04-17 11:05:00,
2013-04-17 07:15:00,44.3,33.3,30.13,NNE,18,1.0,1.0,65,0.00,,,0.00,Wunderground v.1.15,2013-04-17 11:15:00,
2013-04-17 07:21:00,44.7,33.6,30.13,NNW,329,0.0,0.0,65,0.00,,,0.00,Wunderground v.1.15,2013-04-17 11:21:00,
2013-04-17 07:26:00,45.0,33.5,30.13,WSW,251,0.0,0.0,64,0.00,,,0.00,Wunderground v.1.15,2013-04-17 11:26:00,
2013-04-17 07:35:00,45.0,33.2,30.14,SW,226,1.0,1.0,63,0.00,,,0.00,Wunderground v.1.15,2013-04-17 11:35:00,
2013-04-17 07:41:00,45.1,33.2,30.13,SSW,210,0.0,0.0,63,0.00,,,0.00,Wunderground v.1.15,2013-04-17 11:41:00,
2013-04-17 07:46:00,45.4,33.1,30.13,NNW,334,0.0,0.0,62,0.00,,,0.00,Wunderground v.1.15,2013-04-17 11:46:00,
2013-04-17 07:55:00,45.5,33.2,30.13,ESE,115,1.0,1.0,62,0.00,,,0.00,Wunderground v.1.15,2013-04-17 11:55:00,
2013-04-17 08:05:00,46.0,33.3,30.13,NNE,13,1.0,3.0,61,0.00,,,0.00,Wunderground v.1.15,2013-04-17 12:05:00,
2013-04-17 08:11:00,46.3,32.7,30.13,WNW,292,2.0,2.0,59,0.00,,,0.00,Wunderground v.1.15,2013-04-17 12:11:00,
2013-04-17 08:20:00,46.6,33.0,30.14,NW,321,1.0,1.0,59,0.00,,,0.00,Wunderground v.1.15,2013-04-17 12:20:00,
2013-04-17 08:25:00,46.7,32.7,30.14,NNE,30,2.0,2.0,58,0.00,,,0.00,Wunderground v.1.15,2013-04-17 12:25:00,
2013-04-17 08:31:00,47.0,32.5,30.14,SW,224,2.0,5.0,57,0.00,,,0.00,Wunderground v.1.15,2013-04-17 12:31:00,
2013-04-17 08:36:00,47.0,32.1,30.14,NW,313,2.0,5.0,56,0.00,,,0.00,Wunderground v.1.15,2013-04-17 12:36:00,
2013-04-17 08:45:00,47.2,31.8,30.14,NW,312,3.0,7.0,55,0.00,,,0.01,Wunderground v.1.15,2013-04-17 12:45:00,
2013-04-17 08:55:00,47.8,32.4,30.14,NW,304,2.0,5.0,55,0.00,,,0.01,Wunderground v.1.15,2013-04-17 12:55:00,
2013-04-17 09:01:00,47.9,32.5,30.15,NNW,335,2.0,2.0,55,0.00,,,0.01,Wunderground v.1.15,2013-04-17 13:01:00,
2013-04-17 09:06:00,48.2,33.2,30.15,NNE,28,3.0,5.0,56,0.00,,,0.01,Wunderground v.1.15,2013-04-17 13:06:00,
2013-04-17 09:15:00,48.5,32.6,30.15,NNE,33,2.0,7.0,54,0.00,,,0.01,Wunderground v.1.15,2013-04-17 13:15:00,
2013-04-17 09:25:00,49.0,32.1,30.15,North,360,2.0,3.0,52,0.00,,,0.01,Wunderground v.1.15,2013-04-17 13:25:00,
2013-04-17 09:31:00,49.0,32.1,30.16,North,360,2.0,2.0,52,0.00,,,0.01,Wunderground v.1.15,2013-04-17 13:31:00,
2013-04-17 09:36:00,49.0,32.6,30.16,North,355,3.0,3.0,53,0.00,,,0.01,Wunderground v.1.15,2013-04-17 13:36:00,
2013-04-17 09:45:00,50.1,33.6,30.16,WSW,246,1.0,9.0,53,0.00,,,0.01,Wunderground v.1.15,2013-04-17 13:45:00,
2013-04-17 09:55:00,49.9,32.5,30.16,SW,232,3.0,4.0,51,0.00,,,0.01,Wunderground v.1.15,2013-04-17 13:55:00,
2013-04-17 10:01:00,49.9,33.0,30.16,WNW,284,5.0,5.0,52,0.00,,,0.01,Wunderground v.1.15,2013-04-17 14:01:00,
2013-04-17 10:06:00,50.7,34.6,30.15,WSW,256,3.0,5.0,54,0.00,,,0.01,Wunderground v.1.15,2013-04-17 14:06:00,
2013-04-17 10:15:00,50.9,33.4,30.15,WSW,250,2.0,4.0,51,0.00,,,0.01,Wunderground v.1.15,2013-04-17 14:15:00,
2013-04-17 10:21:00,51.2,33.7,30.15,North,350,2.0,4.0,51,0.00,,,0.01,Wunderground v.1.15,2013-04-17 14:21:00,
2013-04-17 10:26:00,51.5,32.4,30.16,NNW,333,3.0,4.0,48,0.00,,,0.01,Wunderground v.1.15,2013-04-17 14:26:00,
2013-04-17 10:35:00,51.5,33.0,30.16,WNW,296,3.0,3.0,49,0.00,,,0.01,Wunderground v.1.15,2013-04-17 14:35:00,
2013-04-17 10:45:00,52.5,35.4,30.17,West,271,2.0,5.0,52,0.00,,,0.01,Wunderground v.1.15,2013-04-17 14:45:00,
2013-04-17 10:50:00,52.4,34.3,30.17,South,178,2.0,2.0,50,0.00,,,0.01,Wunderground v.1.15,2013-04-17 14:50:00,
2013-04-17 10:55:00,52.4,33.8,30.17,NW,323,2.0,4.0,49,0.00,,,0.01,Wunderground v.1.15,2013-04-17 14:55:00,
2013-04-17 11:05:00,53.2,33.5,30.17,West,261,2.0,2.0,47,0.00,,,0.01,Wunderground v.1.15,2013-04-17 15:05:00,
2013-04-17 11:11:00,53.1,33.9,30.17,NNE,14,2.0,5.0,48,0.00,,,0.01,Wunderground v.1.15,2013-04-17 15:11:00,
2013-04-17 11:16:00,52.8,33.1,30.17,North,355,3.0,5.0,47,0.00,,,0.01,Wunderground v.1.15,2013-04-17 15:16:00,
2013-04-17 11:25:00,53.6,32.8,30.17,WNW,291,1.0,2.0,45,0.00,,,0.01,Wunderground v.1.15,2013-04-17 15:25:00,
2013-04-17 11:35:00,53.0,32.8,30.17,NNE,17,3.0,5.0,46,0.00,,,0.01,Wunderground v.1.15,2013-04-17 15:35:00,
2013-04-17 11:41:00,53.1,33.4,30.17,East,82,3.0,5.0,47,0.00,,,0.01,Wunderground v.1.15,2013-04-17 15:41:00,
2013-04-17 11:46:00,53.8,32.9,30.17,NNE,32,3.0,5.0,45,0.00,,,0.01,Wunderground v.1.15,2013-04-17 15:46:00,
2013-04-17 11:55:00,54.3,35.0,30.17,WSW,257,2.0,10.0,48,0.00,,,0.01,Wunderground v.1.15,2013-04-17 15:55:00,
2013-04-17 12:06:00,54.3,33.4,30.17,NNW,341,3.0,4.0,45,0.00,,,0.01,Wunderground v.1.15,2013-04-17 16:06:00,
2013-04-17 12:15:00,54.8,33.8,30.17,West,267,2.0,4.0,45,0.00,,,0.01,Wunderground v.1.15,2013-04-17 16:15:00,
2013-04-17 12:25:00,55.6,32.8,30.17,WNW,292,2.0,2.0,42,0.00,,,0.01,Wunderground v.1.15,2013-04-17 16:25:00,
2013-04-17 12:31:00,55.5,33.3,30.17,NNW,344,2.0,2.0,43,0.00,,,0.01,Wunderground v.1.15,2013-04-17 16:31:00,
2013-04-17 12:36:00,55.7,33.5,30.17,North,355,2.0,3.0,43,0.00,,,0.01,Wunderground v.1.15,2013-04-17 16:36:00,
2013-04-17 12:45:00,56.0,33.8,30.17,North,5,3.0,3.0,43,0.00,,,0.01,Wunderground v.1.15,2013-04-17 16:45:00,
2013-04-17 12:51:00,55.6,34.0,30.17,North,5,4.0,8.0,44,0.00,,,0.01,Wunderground v.1.15,2013-04-17 16:51:00,
2013-04-17 12:56:00,55.4,32.7,30.17,West,260,4.0,8.0,42,0.00,,,0.01,Wunderground v.1.15,2013-04-17 16:56:00,
2013-04-17 13:06:00,56.2,33.4,30.17,East,82,4.0,7.0,42,0.00,,,0.01,Wunderground v.1.15,2013-04-17 17:06:00,
2013-04-17 13:15:00,56.2,34.6,30.17,NE,37,2.0,4.0,44,0.00,,,0.01,Wunderground v.1.15,2013-04-17 17:15:00,
2013-04-17 13:21:00,56.1,32.7,30.17,North,5,3.0,6.0,41,0.00,,,0.01,Wunderground v.1.15,2013-04-17 17:21:00,
2013-04-17 13:26:00,56.4,33.0,30.17,NNW,346,4.0,6.0,41,0.00,,,0.01,Wunderground v.1.15,2013-04-17 17:26:00,
2013-04-17 13:35:00,56.7,32.6,30.17,West,269,3.0,4.0,40,0.00,,,0.01,Wunderground v.1.15,2013-04-17 17:35:00,
2013-04-17 13:45:00,56.3,34.6,30.16,NNE,23,4.0,7.0,44,0.00,,,0.01,Wunderground v.1.15,2013-04-17 17:45:00,
2013-04-17 13:51:00,56.7,32.6,30.17,North,360,3.0,6.0,40,0.00,,,0.01,Wunderground v.1.15,2013-04-17 17:51:00,
2013-04-17 13:56:00,57.1,34.2,30.17,NNE,28,2.0,6.0,42,0.00,,,0.01,Wunderground v.1.15,2013-04-17 17:56:00,
2013-04-17 14:05:00,56.5,33.1,30.17,South,184,5.0,5.0,41,0.00,,,0.01,Wunderground v.1.15,2013-04-17 18:05:00,
2013-04-17 14:11:00,57.0,31.6,30.17,SSE,163,3.0,4.0,38,0.00,,,0.01,Wunderground v.1.15,2013-04-17 18:11:00,
2013-04-17 14:16:00,57.3,29.9,30.17,North,355,3.0,6.0,35,0.00,,,0.01,Wunderground v.1.15,2013-04-17 18:16:00,
2013-04-17 14:25:00,56.8,31.4,30.18,NNE,13,6.0,12.0,38,0.00,,,0.01,Wunderground v.1.15,2013-04-17 18:25:00,
2013-04-17 14:35:00,56.6,33.2,30.19,East,99,6.0,6.0,41,0.00,,,0.01,Wunderground v.1.15,2013-04-17 18:35:00,
2013-04-17 14:41:00,57.2,34.3,30.18,West,265,4.0,4.0,42,0.00,,,0.01,Wunderground v.1.15,2013-04-17 18:41:00,
2013-04-17 14:46:00,57.5,33.3,30.18,NE,41,3.0,4.0,40,0.00,,,0.01,Wunderground v.1.15,2013-04-17 18:46:00,
2013-04-17 14:55:00,57.5,30.0,30.18,WNW,288,3.0,11.0,35,0.00,,,0.01,Wunderground v.1.15,2013-04-17 18:55:00,
2013-04-17 15:05:00,57.4,31.3,30.18,ENE,67,5.0,5.0,37,0.00,,,0.01,Wunderground v.1.15,2013-04-17 19:05:00,
2013-04-17 15:11:00,57.0,30.3,30.18,North,11,5.0,5.0,36,0.00,,,0.01,Wunderground v.1.15,2013-04-17 19:11:00,
2013-04-17 15:20:00,57.4,32.0,30.19,West,272,3.0,4.0,38,0.00,,,0.01,Wunderground v.1.15,2013-04-17 19:20:00,
2013-04-17 15:25:00,57.3,32.5,30.19,WSW,244,3.0,4.0,39,0.00,,,0.01,Wunderground v.1.15,2013-04-17 19:25:00,
2013-04-17 15:31:00,57.6,31.5,30.19,NNE,28,2.0,5.0,37,0.00,,,0.01,Wunderground v.1.15,2013-04-17 19:31:00,
2013-04-17 15:36:00,57.5,31.4,30.19,SW,226,2.0,9.0,37,0.00,,,0.01,Wunderground v.1.15,2013-04-17 19:36:00,
2013-04-17 15:45:00,57.4,30.6,30.20,WNW,284,4.0,4.0,36,0.00,,,0.01,Wunderground v.1.15,2013-04-17 19:45:00,
2013-04-17 15:56:00,57.0,31.0,30.20,NNE,26,3.0,5.0,37,0.00,,,0.01,Wunderground v.1.15,2013-04-17 19:56:00,
2013-04-17 16:06:00,56.6,30.6,30.20,NW,317,5.0,12.0,37,0.00,,,0.01,Wunderground v.1.15,2013-04-17 20:06:00,
2013-04-17 16:15:00,56.9,30.2,30.20,NE,40,3.0,4.0,36,0.00,,,0.01,Wunderground v.1.15,2013-04-17 20:15:00,
2013-04-17 16:25:00,57.3,30.5,30.20,NNE,22,2.0,3.0,36,0.00,,,0.01,Wunderground v.1.15,2013-04-17 20:25:00,
2013-04-17 16:31:00,57.2,30.5,30.21,North,355,3.0,3.0,36,0.00,,,0.01,Wunderground v.1.15,2013-04-17 20:31:00,
2013-04-17 16:40:00,56.5,29.8,30.20,NE,38,4.0,4.0,36,0.00,,,0.01,Wunderground v.1.15,2013-04-17 20:40:00,
2013-04-17 16:45:00,56.7,30.0,30.21,North,355,3.0,4.0,36,0.00,,,0.01,Wunderground v.1.15,2013-04-17 20:45:00,
2013-04-17 16:51:00,56.8,30.8,30.21,SSW,196,2.0,2.0,37,0.00,,,0.01,Wunderground v.1.15,2013-04-17 20:51:00,
2013-04-17 16:56:00,56.9,30.2,30.22,West,259,2.0,2.0,36,0.00,,,0.01,Wunderground v.1.15,2013-04-17 20:56:00,
2013-04-17 17:05:00,56.0,30.1,30.22,NNE,32,4.0,8.0,37,0.00,,,0.01,Wunderground v.1.15,2013-04-17 21:05:00,
2013-04-17 17:16:00,56.1,30.8,30.22,SSW,195,3.0,5.0,38,0.00,,,0.01,Wunderground v.1.15,2013-04-17 21:16:00,
2013-04-17 17:26:00,55.8,31.2,30.23,WSW,243,2.0,3.0,39,0.00,,,0.01,Wunderground v.1.15,2013-04-17 21:26:00,
2013-04-17 17:35:00,55.5,30.9,30.23,South,179,2.0,11.0,39,0.00,,,0.01,Wunderground v.1.15,2013-04-17 21:35:00,
2013-04-17 17:41:00,55.5,30.9,30.23,NE,36,1.0,1.0,39,0.00,,,0.01,Wunderground v.1.15,2013-04-17 21:41:00,
2013-04-17 17:46:00,55.3,30.1,30.23,North,350,1.0,1.0,38,0.00,,,0.01,Wunderground v.1.15,2013-04-17 21:46:00,
2013-04-17 17:55:00,54.6,30.1,30.23,NW,306,2.0,2.0,39,0.00,,,0.01,Wunderground v.1.15,2013-04-17 21:55:00,
2013-04-17 18:01:00,54.3,29.2,30.24,SSW,210,2.0,2.0,38,0.00,,,0.01,Wunderground v.1.15,2013-04-17 22:01:00,
2013-04-17 18:11:00,53.7,28.7,30.24,NW,307,1.0,1.0,38,0.00,,,0.01,Wunderground v.1.15,2013-04-17 22:11:00,
2013-04-17 18:16:00,53.5,28.5,30.25,ENE,59,1.0,1.0,38,0.00,,,0.01,Wunderground v.1.15,2013-04-17 22:16:00,
2013-04-17 18:25:00,53.0,28.7,30.25,NNW,340,1.0,5.0,39,0.00,,,0.01,Wunderground v.1.15,2013-04-17 22:25:00,
2013-04-17 18:31:00,52.7,27.8,30.25,NNE,31,1.0,1.0,38,0.00,,,0.01,Wunderground v.1.15,2013-04-17 22:31:00,
2013-04-17 18:40:00,52.3,28.1,30.25,NW,310,0.0,0.0,39,0.00,,,0.01,Wunderground v.1.15,2013-04-17 22:40:00,
2013-04-17 18:45:00,52.1,27.9,30.26,West,272,0.0,1.0,39,0.00,,,0.01,Wunderground v.1.15,2013-04-17 22:45:00,
2013-04-17 18:55:00,51.8,28.2,30.26,WSW,248,0.0,0.0,40,0.00,,,0.01,Wunderground v.1.15,2013-04-17 22:55:00,
2013-04-17 19:05:00,51.2,28.9,30.27,West,273,0.0,0.0,42,0.00,,,0.01,Wunderground v.1.15,2013-04-17 23:05:00,
2013-04-17 19:10:00,50.8,28.5,30.27,NNE,30,0.0,0.0,42,0.00,,,0.01,Wunderground v.1.15,2013-04-17 23:10:00,
2013-04-17 19:20:00,50.3,28.1,30.27,NNE,26,0.0,0.0,42,0.00,,,0.01,Wunderground v.1.15,2013-04-17 23:20:00,
2013-04-17 19:25:00,50.1,28.4,30.27,NNE,28,0.0,0.0,43,0.00,,,0.01,Wunderground v.1.15,2013-04-17 23:25:00,
2013-04-17 19:30:00,49.9,28.3,30.28,NNE,28,0.0,0.0,43,0.00,,,0.01,Wunderground v.1.15,2013-04-17 23:30:00,
2013-04-17 19:35:00,49.7,28.6,30.28,NNE,28,0.0,0.0,44,0.00,,,0.01,Wunderground v.1.15,2013-04-17 23:35:00,
2013-04-17 19:45:00,49.2,28.7,30.28,NNW,338,0.0,0.0,45,0.00,,,0.01,Wunderground v.1.15,2013-04-17 23:45:00,
2013-04-17 19:55:00,48.8,28.9,30.29,NE,35,0.0,0.0,46,0.00,,,0.01,Wunderground v.1.15,2013-04-17 23:55:00,
2013-04-17 20:05:00,48.5,28.6,30.30,NNE,24,0.0,0.0,46,0.00,,,0.01,Wunderground v.1.15,2013-04-18 00:05:00,
2013-04-17 20:15:00,48.3,29.0,30.30,NNE,24,0.0,0.0,47,0.00,,,0.01,Wunderground v.1.15,2013-04-18 00:15:00,
2013-04-17 20:20:00,47.9,29.1,30.30,North,9,0.0,0.0,48,0.00,,,0.01,Wunderground v.1.15,2013-04-18 00:20:00,
2013-04-17 20:25:00,47.6,28.3,30.30,North,360,0.0,0.0,47,0.00,,,0.01,Wunderground v.1.15,2013-04-18 00:25:00,
2013-04-17 20:35:00,47.4,29.2,30.30,NW,319,0.0,0.0,49,0.00,,,0.01,Wunderground v.1.15,2013-04-18 00:35:00,
2013-04-17 20:40:00,47.2,29.0,30.30,North,355,0.0,4.0,49,0.00,,,0.01,Wunderground v.1.15,2013-04-18 00:40:00,
2013-04-17 20:45:00,47.2,28.5,30.30,NNE,28,0.0,4.0,48,0.00,,,0.01,Wunderground v.1.15,2013-04-18 00:45:00,
2013-04-17 20:55:00,47.0,28.8,30.30,NNE,26,0.0,0.0,49,0.00,,,0.01,Wunderground v.1.15,2013-04-18 00:55:00,
2013-04-17 21:05:00,46.8,28.6,30.31,NNE,24,0.0,0.0,49,0.00,,,0.01,Wunderground v.1.15,2013-04-18 01:05:00,
2013-04-17 21:10:00,46.7,28.5,30.31,NNE,15,0.0,0.0,49,0.00,,,0.01,Wunderground v.1.15,2013-04-18 01:10:00,
2013-04-17 21:15:00,46.5,28.8,30.31,NNE,15,0.0,0.0,50,0.00,,,0.01,Wunderground v.1.15,2013-04-18 01:15:00,
2013-04-17 21:25:00,46.4,28.3,30.31,NNE,15,0.0,0.0,49,0.00,,,0.01,Wunderground v.1.15,2013-04-18 01:25:00,
2013-04-17 21:30:00,46.3,28.7,30.30,NNE,15,0.0,0.0,50,0.00,,,0.01,Wunderground v.1.15,2013-04-18 01:30:00,
2013-04-17 21:35:00,46.0,28.4,30.30,NNE,29,0.0,0.0,50,0.00,,,0.01,Wunderground v.1.15,2013-04-18 01:35:00,
2013-04-17 21:45:00,45.5,28.4,30.29,NNE,29,0.0,2.0,51,0.00,,,0.01,Wunderground v.1.15,2013-04-18 01:45:00,
2013-04-17 21:50:00,45.3,28.2,30.30,NNE,29,0.0,0.0,51,0.00,,,0.01,Wunderground v.1.15,2013-04-18 01:50:00,
2013-04-17 21:55:00,45.0,28.4,30.30,NNE,29,0.0,0.0,52,0.00,,,0.01,Wunderground v.1.15,2013-04-18 01:55:00,
2013-04-17 22:05:00,45.1,28.0,30.30,NE,56,0.0,0.0,51,0.00,,,0.01,Wunderground v.1.15,2013-04-18 02:05:00,
2013-04-17 22:15:00,44.6,28.5,30.30,NE,56,0.0,0.0,53,0.00,,,0.01,Wunderground v.1.15,2013-04-18 02:15:00,
2013-04-17 22:20:00,44.3,28.2,30.29,NE,56,0.0,0.0,53,0.00,,,0.01,Wunderground v.1.15,2013-04-18 02:20:00,
2013-04-17 22:30:00,43.8,28.7,30.30,NE,51,0.0,0.0,55,0.00,,,0.01,Wunderground v.1.15,2013-04-18 02:30:00,
2013-04-17 22:35:00,43.7,28.1,30.30,NE,51,0.0,0.0,54,0.00,,,0.01,Wunderground v.1.15,2013-04-18 02:35:00,
2013-04-17 22:40:00,43.6,28.0,30.30,NE,51,0.0,0.0,54,0.00,,,0.01,Wunderground v.1.15,2013-04-18 02:40:00,
2013-04-17 22:45:00,43.6,28.0,30.30,NE,51,0.0,0.0,54,0.00,,,0.01,Wunderground v.1.15,2013-04-18 02:45:00,
2013-04-17 22:55:00,43.1,28.0,30.30,NE,51,0.0,0.0,55,0.00,,,0.01,Wunderground v.1.15,2013-04-18 02:55:00,
2013-04-17 23:05:00,42.2,28.0,30.29,NE,51,0.0,0.0,57,0.00,,,0.01,Wunderground v.1.15,2013-04-18 03:05:00,
2013-04-17 23:10:00,42.0,28.3,30.29,NE,51,0.0,0.0,58,0.00,,,0.01,Wunderground v.1.15,2013-04-18 03:10:00,
2013-04-17 23:15:00,42.1,27.9,30.29,NE,51,0.0,0.0,57,0.00,,,0.01,Wunderground v.1.15,2013-04-18 03:15:00,
2013-04-17 23:25:00,42.2,28.0,30.30,NE,51,0.0,0.0,57,0.00,,,0.01,Wunderground v.1.15,2013-04-18 03:25:00,
2013-04-17 23:35:00,42.0,27.9,30.31,NE,46,0.0,0.0,57,0.00,,,0.01,Wunderground v.1.15,2013-04-18 03:35:00,
2013-04-17 23:40:00,42.0,27.9,30.31,NE,45,0.0,0.0,57,0.00,,,0.01,Wunderground v.1.15,2013-04-18 03:40:00,
2013-04-17 23:45:00,41.9,27.8,30.32,NE,46,0.0,0.0,57,0.00,,,0.01,Wunderground v.1.15,2013-04-18 03:45:00,
2013-04-17 23:55:00,41.9,27.8,30.32,NE,46,0.0,0.0,57,0.00,,,0.01,Wunderground v.1.15,2013-04-18 03:55:00,